sensor_id;sensor_type;location;lat;lon;timestamp;temperature;humidity
23120;DHT22;11729;50.836;4.330;2023-04-15T00:00:48;12.50;99.90
23120;DHT22;11729;50.836;4.330;2023-04-15T00:03:16;12.50;99.90
23120;DHT22;11729;50.836;4.330;2023-04-15T00:05:43;12.50;99.90
23120;DHT22;11729;50.836;4.330;2023-04-15T00:08:09;12.50;99.90
23120;DHT22;11729;50.836;4.330;2023-04-15T00:10:34;12.40;99.90
23120;DHT22;11729;50.836;4.330;2023-04-15T00:13:00;12.40;99.90
23120;DHT22;11729;50.836;4.330;2023-04-15T00:15:27;12.40;99.90
23120;DHT22;11729;50.836;4.330;2023-04-15T00:17:52;12.50;99.90
23120;DHT22;11729;50.836;4.330;2023-04-15T00:20:18;12.60;99.90
23120;DHT22;11729;50.836;4.330;2023-04-15T00:22:44;12.50;99.90
23120;DHT22;11729;50.836;4.330;2023-04-15T00:25:10;12.40;99.90
23120;DHT22;11729;50.836;4.330;2023-04-15T00:27:36;12.40;99.90
23120;DHT22;11729;50.836;4.330;2023-04-15T00:30:02;12.30;99.90
23120;DHT22;11729;50.836;4.330;2023-04-15T00:32:28;12.30;99.90
23120;DHT22;11729;50.836;4.330;2023-04-15T00:34:54;12.30;99.90
23120;DHT22;11729;50.836;4.330;2023-04-15T00:37:20;12.20;99.90
23120;DHT22;11729;50.836;4.330;2023-04-15T00:39:46;12.00;99.90
23120;DHT22;11729;50.836;4.330;2023-04-15T00:42:13;12.10;99.90
23120;DHT22;11729;50.836;4.330;2023-04-15T00:44:38;12.10;99.90
23120;DHT22;11729;50.836;4.330;2023-04-15T00:47:04;12.20;99.90
23120;DHT22;11729;50.836;4.330;2023-04-15T00:49:30;12.10;99.90
23120;DHT22;11729;50.836;4.330;2023-04-15T00:51:56;12.00;99.90
23120;DHT22;11729;50.836;4.330;2023-04-15T00:54:23;12.00;99.90
23120;DHT22;11729;50.836;4.330;2023-04-15T00:56:49;12.00;99.90
23120;DHT22;11729;50.836;4.330;2023-04-15T00:59:16;12.10;99.90
23120;DHT22;11729;50.836;4.330;2023-04-15T01:01:43;12.20;99.90
23120;DHT22;11729;50.836;4.330;2023-04-15T01:04:09;12.20;99.90
23120;DHT22;11729;50.836;4.330;2023-04-15T01:06:36;12.20;99.90
23120;DHT22;11729;50.836;4.330;2023-04-15T01:09:02;12.20;99.90
23120;DHT22;11729;50.836;4.330;2023-04-15T01:11:28;12.20;99.90
23120;DHT22;11729;50.836;4.330;2023-04-15T01:13:55;12.20;99.90
23120;DHT22;11729;50.836;4.330;2023-04-15T01:16:26;12.10;99.90
23120;DHT22;11729;50.836;4.330;2023-04-15T01:18:52;12.20;99.90
23120;DHT22;11729;50.836;4.330;2023-04-15T01:21:18;12.10;99.90
23120;DHT22;11729;50.836;4.330;2023-04-15T01:23:46;12.00;99.90
23120;DHT22;11729;50.836;4.330;2023-04-15T01:26:12;12.00;99.90
23120;DHT22;11729;50.836;4.330;2023-04-15T01:28:38;12.00;99.90
23120;DHT22;11729;50.836;4.330;2023-04-15T01:31:09;12.20;99.90
23120;DHT22;11729;50.836;4.330;2023-04-15T01:33:35;12.20;99.90
23120;DHT22;11729;50.836;4.330;2023-04-15T01:36:01;12.10;99.90
23120;DHT22;11729;50.836;4.330;2023-04-15T01:38:27;12.10;99.90
23120;DHT22;11729;50.836;4.330;2023-04-15T01:40:54;11.90;99.90
23120;DHT22;11729;50.836;4.330;2023-04-15T01:43:19;11.90;99.90
23120;DHT22;11729;50.836;4.330;2023-04-15T01:45:45;11.80;99.90
23120;DHT22;11729;50.836;4.330;2023-04-15T01:48:11;11.90;99.90
23120;DHT22;11729;50.836;4.330;2023-04-15T01:50:37;11.90;99.90
23120;DHT22;11729;50.836;4.330;2023-04-15T01:53:03;12.00;99.90
23120;DHT22;11729;50.836;4.330;2023-04-15T01:55:30;12.00;99.90
23120;DHT22;11729;50.836;4.330;2023-04-15T01:57:57;12.10;99.90
23120;DHT22;11729;50.836;4.330;2023-04-15T02:00:22;11.90;99.90
23120;DHT22;11729;50.836;4.330;2023-04-15T02:02:48;11.80;99.90
23120;DHT22;11729;50.836;4.330;2023-04-15T02:05:14;11.80;99.90
23120;DHT22;11729;50.836;4.330;2023-04-15T02:07:41;11.90;99.90
23120;DHT22;11729;50.836;4.330;2023-04-15T02:10:08;12.00;99.90
23120;DHT22;11729;50.836;4.330;2023-04-15T02:12:34;11.90;99.90
23120;DHT22;11729;50.836;4.330;2023-04-15T02:15:00;11.90;99.90
23120;DHT22;11729;50.836;4.330;2023-04-15T02:17:25;12.00;99.90
23120;DHT22;11729;50.836;4.330;2023-04-15T02:19:51;12.00;99.90
23120;DHT22;11729;50.836;4.330;2023-04-15T02:22:19;11.90;99.90
23120;DHT22;11729;50.836;4.330;2023-04-15T02:24:44;11.80;99.90
23120;DHT22;11729;50.836;4.330;2023-04-15T02:27:15;11.80;99.90
23120;DHT22;11729;50.836;4.330;2023-04-15T02:29:42;11.90;99.90
23120;DHT22;11729;50.836;4.330;2023-04-15T02:32:08;11.90;99.90
23120;DHT22;11729;50.836;4.330;2023-04-15T02:34:34;12.00;99.90
23120;DHT22;11729;50.836;4.330;2023-04-15T02:36:59;11.90;99.90
23120;DHT22;11729;50.836;4.330;2023-04-15T02:39:25;11.80;99.90
23120;DHT22;11729;50.836;4.330;2023-04-15T02:41:51;11.80;99.90
23120;DHT22;11729;50.836;4.330;2023-04-15T02:44:17;11.80;99.90
23120;DHT22;11729;50.836;4.330;2023-04-15T02:46:47;11.80;99.90
23120;DHT22;11729;50.836;4.330;2023-04-15T02:49:15;11.70;99.90
23120;DHT22;11729;50.836;4.330;2023-04-15T02:51:41;11.70;99.90
23120;DHT22;11729;50.836;4.330;2023-04-15T02:54:07;11.70;99.90
23120;DHT22;11729;50.836;4.330;2023-04-15T02:56:33;11.70;99.90
23120;DHT22;11729;50.836;4.330;2023-04-15T02:58:58;11.60;99.90
23120;DHT22;11729;50.836;4.330;2023-04-15T03:01:24;11.60;99.90
23120;DHT22;11729;50.836;4.330;2023-04-15T03:03:50;11.60;99.90
23120;DHT22;11729;50.836;4.330;2023-04-15T03:06:16;11.80;99.90
23120;DHT22;11729;50.836;4.330;2023-04-15T03:08:41;12.00;99.90
23120;DHT22;11729;50.836;4.330;2023-04-15T03:11:07;12.00;99.90
23120;DHT22;11729;50.836;4.330;2023-04-15T03:13:33;11.90;99.90
23120;DHT22;11729;50.836;4.330;2023-04-15T03:15:58;11.90;99.90
23120;DHT22;11729;50.836;4.330;2023-04-15T03:18:24;12.00;99.90
23120;DHT22;11729;50.836;4.330;2023-04-15T03:20:50;11.80;99.90
23120;DHT22;11729;50.836;4.330;2023-04-15T03:23:15;11.70;99.90
23120;DHT22;11729;50.836;4.330;2023-04-15T03:25:41;11.60;99.90
23120;DHT22;11729;50.836;4.330;2023-04-15T03:28:07;11.60;99.90
23120;DHT22;11729;50.836;4.330;2023-04-15T03:30:32;11.40;99.90
23120;DHT22;11729;50.836;4.330;2023-04-15T03:32:58;11.40;99.90
23120;DHT22;11729;50.836;4.330;2023-04-15T03:35:23;11.40;99.90
23120;DHT22;11729;50.836;4.330;2023-04-15T03:37:49;11.10;99.90
23120;DHT22;11729;50.836;4.330;2023-04-15T03:40:15;11.10;99.90
23120;DHT22;11729;50.836;4.330;2023-04-15T03:42:44;11.10;99.90
23120;DHT22;11729;50.836;4.330;2023-04-15T03:45:10;11.20;99.90
23120;DHT22;11729;50.836;4.330;2023-04-15T03:47:36;11.10;99.90
23120;DHT22;11729;50.836;4.330;2023-04-15T03:50:02;11.30;99.90
23120;DHT22;11729;50.836;4.330;2023-04-15T03:52:30;11.60;99.90
23120;DHT22;11729;50.836;4.330;2023-04-15T03:54:57;11.40;99.90
23120;DHT22;11729;50.836;4.330;2023-04-15T03:57:23;11.10;99.90
23120;DHT22;11729;50.836;4.330;2023-04-15T03:59:49;11.00;99.90
23120;DHT22;11729;50.836;4.330;2023-04-15T04:02:14;10.90;99.90
23120;DHT22;11729;50.836;4.330;2023-04-15T04:04:40;10.90;99.90
23120;DHT22;11729;50.836;4.330;2023-04-15T04:07:06;11.00;99.90
23120;DHT22;11729;50.836;4.330;2023-04-15T04:09:32;11.00;99.90
23120;DHT22;11729;50.836;4.330;2023-04-15T04:11:57;11.00;99.90
23120;DHT22;11729;50.836;4.330;2023-04-15T04:14:23;10.80;99.90
23120;DHT22;11729;50.836;4.330;2023-04-15T04:16:54;10.80;99.90
23120;DHT22;11729;50.836;4.330;2023-04-15T04:19:20;10.60;99.90
23120;DHT22;11729;50.836;4.330;2023-04-15T04:21:45;10.60;99.90
23120;DHT22;11729;50.836;4.330;2023-04-15T04:24:14;10.50;99.90
23120;DHT22;11729;50.836;4.330;2023-04-15T04:26:39;10.60;99.90
23120;DHT22;11729;50.836;4.330;2023-04-15T04:29:05;10.50;99.90
23120;DHT22;11729;50.836;4.330;2023-04-15T04:31:31;10.40;99.90
23120;DHT22;11729;50.836;4.330;2023-04-15T04:33:57;10.40;99.90
23120;DHT22;11729;50.836;4.330;2023-04-15T04:36:22;10.50;99.90
23120;DHT22;11729;50.836;4.330;2023-04-15T04:38:49;10.60;99.90
23120;DHT22;11729;50.836;4.330;2023-04-15T04:41:17;10.60;99.90
23120;DHT22;11729;50.836;4.330;2023-04-15T04:43:42;10.50;99.90
23120;DHT22;11729;50.836;4.330;2023-04-15T04:46:08;10.50;99.90
23120;DHT22;11729;50.836;4.330;2023-04-15T04:48:34;10.70;99.90
23120;DHT22;11729;50.836;4.330;2023-04-15T04:51:00;10.80;99.90
23120;DHT22;11729;50.836;4.330;2023-04-15T04:53:26;10.30;99.90
23120;DHT22;11729;50.836;4.330;2023-04-15T04:55:52;10.10;99.90
23120;DHT22;11729;50.836;4.330;2023-04-15T04:58:18;9.90;99.90
23120;DHT22;11729;50.836;4.330;2023-04-15T05:00:43;10.00;99.90
23120;DHT22;11729;50.836;4.330;2023-04-15T05:03:09;10.30;99.90
23120;DHT22;11729;50.836;4.330;2023-04-15T05:05:35;10.30;99.90
23120;DHT22;11729;50.836;4.330;2023-04-15T05:08:04;10.20;99.90
23120;DHT22;11729;50.836;4.330;2023-04-15T05:10:30;10.20;99.90
23120;DHT22;11729;50.836;4.330;2023-04-15T05:12:56;10.30;99.90
23120;DHT22;11729;50.836;4.330;2023-04-15T05:15:22;10.30;99.90
23120;DHT22;11729;50.836;4.330;2023-04-15T05:17:47;10.30;99.90
23120;DHT22;11729;50.836;4.330;2023-04-15T05:20:16;10.40;99.90
23120;DHT22;11729;50.836;4.330;2023-04-15T05:22:42;10.50;99.90
23120;DHT22;11729;50.836;4.330;2023-04-15T05:25:08;10.40;99.90
23120;DHT22;11729;50.836;4.330;2023-04-15T05:27:34;10.50;99.90
23120;DHT22;11729;50.836;4.330;2023-04-15T05:29:59;10.70;99.90
23120;DHT22;11729;50.836;4.330;2023-04-15T05:32:26;10.80;99.90
23120;DHT22;11729;50.836;4.330;2023-04-15T05:34:52;10.80;99.90
23120;DHT22;11729;50.836;4.330;2023-04-15T05:37:17;10.70;99.90
23120;DHT22;11729;50.836;4.330;2023-04-15T05:39:45;10.90;99.90
23120;DHT22;11729;50.836;4.330;2023-04-15T05:42:12;11.10;99.90
23120;DHT22;11729;50.836;4.330;2023-04-15T05:44:37;11.10;99.90
23120;DHT22;11729;50.836;4.330;2023-04-15T05:47:03;11.20;99.90
23120;DHT22;11729;50.836;4.330;2023-04-15T05:49:29;11.10;99.90
23120;DHT22;11729;50.836;4.330;2023-04-15T05:51:55;11.10;99.90
23120;DHT22;11729;50.836;4.330;2023-04-15T05:54:20;11.00;99.90
23120;DHT22;11729;50.836;4.330;2023-04-15T05:56:49;11.00;99.90
23120;DHT22;11729;50.836;4.330;2023-04-15T05:59:14;11.10;99.90
23120;DHT22;11729;50.836;4.330;2023-04-15T06:01:40;11.10;99.90
23120;DHT22;11729;50.836;4.330;2023-04-15T06:04:06;11.20;99.90
23120;DHT22;11729;50.836;4.330;2023-04-15T06:06:31;11.30;99.90
23120;DHT22;11729;50.836;4.330;2023-04-15T06:08:57;11.30;99.90
23120;DHT22;11729;50.836;4.330;2023-04-15T06:11:23;11.40;99.90
23120;DHT22;11729;50.836;4.330;2023-04-15T06:13:50;11.40;99.90
23120;DHT22;11729;50.836;4.330;2023-04-15T06:16:15;11.30;99.90
23120;DHT22;11729;50.836;4.330;2023-04-15T06:18:41;11.50;99.90
23120;DHT22;11729;50.836;4.330;2023-04-15T06:21:07;11.50;99.90
23120;DHT22;11729;50.836;4.330;2023-04-15T06:23:35;11.40;99.90
23120;DHT22;11729;50.836;4.330;2023-04-15T06:26:02;11.30;99.90
23120;DHT22;11729;50.836;4.330;2023-04-15T06:28:28;11.60;99.90
23120;DHT22;11729;50.836;4.330;2023-04-15T06:30:54;11.70;99.90
23120;DHT22;11729;50.836;4.330;2023-04-15T06:33:20;11.80;99.90
23120;DHT22;11729;50.836;4.330;2023-04-15T06:35:45;12.00;99.90
23120;DHT22;11729;50.836;4.330;2023-04-15T06:38:11;12.10;99.90
23120;DHT22;11729;50.836;4.330;2023-04-15T06:40:37;12.20;99.90
23120;DHT22;11729;50.836;4.330;2023-04-15T06:43:02;12.40;99.90
23120;DHT22;11729;50.836;4.330;2023-04-15T06:45:29;12.70;99.90
23120;DHT22;11729;50.836;4.330;2023-04-15T06:47:55;12.90;99.90
23120;DHT22;11729;50.836;4.330;2023-04-15T06:50:21;13.20;99.90
23120;DHT22;11729;50.836;4.330;2023-04-15T06:52:47;13.70;99.90
23120;DHT22;11729;50.836;4.330;2023-04-15T06:55:12;14.20;99.90
23120;DHT22;11729;50.836;4.330;2023-04-15T06:57:39;14.50;99.90
23120;DHT22;11729;50.836;4.330;2023-04-15T07:00:05;14.90;99.90
23120;DHT22;11729;50.836;4.330;2023-04-15T07:02:32;15.20;99.90
23120;DHT22;11729;50.836;4.330;2023-04-15T07:04:57;15.40;99.90
23120;DHT22;11729;50.836;4.330;2023-04-15T07:07:23;16.10;99.90
23120;DHT22;11729;50.836;4.330;2023-04-15T07:09:50;16.60;99.90
23120;DHT22;11729;50.836;4.330;2023-04-15T07:12:15;16.40;99.90
23120;DHT22;11729;50.836;4.330;2023-04-15T07:14:41;16.60;99.90
23120;DHT22;11729;50.836;4.330;2023-04-15T07:17:08;16.80;99.90
23120;DHT22;11729;50.836;4.330;2023-04-15T07:19:33;17.40;99.90
23120;DHT22;11729;50.836;4.330;2023-04-15T07:22:00;17.70;99.90
23120;DHT22;11729;50.836;4.330;2023-04-15T07:24:26;18.00;99.90
23120;DHT22;11729;50.836;4.330;2023-04-15T07:26:54;18.10;99.90
23120;DHT22;11729;50.836;4.330;2023-04-15T07:29:22;18.40;99.90
23120;DHT22;11729;50.836;4.330;2023-04-15T07:31:47;19.10;99.90
23120;DHT22;11729;50.836;4.330;2023-04-15T07:34:13;19.40;99.90
23120;DHT22;11729;50.836;4.330;2023-04-15T07:36:39;20.10;99.90
23120;DHT22;11729;50.836;4.330;2023-04-15T07:39:04;20.70;99.90
23120;DHT22;11729;50.836;4.330;2023-04-15T07:41:30;20.60;97.20
23120;DHT22;11729;50.836;4.330;2023-04-15T07:43:56;20.70;97.60
23120;DHT22;11729;50.836;4.330;2023-04-15T07:46:22;20.70;97.40
23120;DHT22;11729;50.836;4.330;2023-04-15T07:48:49;20.50;95.70
23120;DHT22;11729;50.836;4.330;2023-04-15T07:51:15;19.90;97.80
23120;DHT22;11729;50.836;4.330;2023-04-15T07:53:42;19.50;98.70
23120;DHT22;11729;50.836;4.330;2023-04-15T07:56:08;19.50;97.20
23120;DHT22;11729;50.836;4.330;2023-04-15T07:58:34;19.50;97.70
23120;DHT22;11729;50.836;4.330;2023-04-15T08:00:59;19.60;97.40
23120;DHT22;11729;50.836;4.330;2023-04-15T08:03:25;19.10;98.10
23120;DHT22;11729;50.836;4.330;2023-04-15T08:05:51;19.10;98.50
23120;DHT22;11729;50.836;4.330;2023-04-15T08:08:17;18.80;99.20
23120;DHT22;11729;50.836;4.330;2023-04-15T08:10:42;19.20;99.10
23120;DHT22;11729;50.836;4.330;2023-04-15T08:13:08;19.70;97.30
23120;DHT22;11729;50.836;4.330;2023-04-15T08:15:35;20.00;97.40
23120;DHT22;11729;50.836;4.330;2023-04-15T08:18:01;20.60;95.20
23120;DHT22;11729;50.836;4.330;2023-04-15T08:20:26;20.50;93.00
23120;DHT22;11729;50.836;4.330;2023-04-15T08:22:52;20.80;92.60
23120;DHT22;11729;50.836;4.330;2023-04-15T08:25:18;20.50;92.80
23120;DHT22;11729;50.836;4.330;2023-04-15T08:27:46;20.10;92.80
23120;DHT22;11729;50.836;4.330;2023-04-15T08:30:13;19.70;94.00
23120;DHT22;11729;50.836;4.330;2023-04-15T08:32:39;19.10;95.10
23120;DHT22;11729;50.836;4.330;2023-04-15T08:35:05;19.30;95.80
23120;DHT22;11729;50.836;4.330;2023-04-15T08:37:30;19.80;95.40
23120;DHT22;11729;50.836;4.330;2023-04-15T08:39:56;20.10;94.80
23120;DHT22;11729;50.836;4.330;2023-04-15T08:42:31;19.90;94.60
23120;DHT22;11729;50.836;4.330;2023-04-15T08:44:59;19.90;94.50
23120;DHT22;11729;50.836;4.330;2023-04-15T08:47:30;19.90;94.00
23120;DHT22;11729;50.836;4.330;2023-04-15T08:49:58;19.10;95.80
23120;DHT22;11729;50.836;4.330;2023-04-15T08:52:25;18.80;96.10
23120;DHT22;11729;50.836;4.330;2023-04-15T08:54:55;19.10;97.20
23120;DHT22;11729;50.836;4.330;2023-04-15T08:57:25;18.90;96.00
23120;DHT22;11729;50.836;4.330;2023-04-15T08:59:52;18.90;96.80
23120;DHT22;11729;50.836;4.330;2023-04-15T09:02:18;19.10;96.70
23120;DHT22;11729;50.836;4.330;2023-04-15T09:04:43;19.40;96.20
23120;DHT22;11729;50.836;4.330;2023-04-15T09:07:09;19.80;94.80
23120;DHT22;11729;50.836;4.330;2023-04-15T09:09:34;20.20;94.70
23120;DHT22;11729;50.836;4.330;2023-04-15T09:12:01;20.30;94.20
23120;DHT22;11729;50.836;4.330;2023-04-15T09:14:28;20.50;93.50
23120;DHT22;11729;50.836;4.330;2023-04-15T09:17:03;20.40;94.80
23120;DHT22;11729;50.836;4.330;2023-04-15T09:19:30;20.70;94.30
23120;DHT22;11729;50.836;4.330;2023-04-15T09:21:58;21.40;92.40
23120;DHT22;11729;50.836;4.330;2023-04-15T09:24:25;21.50;91.00
23120;DHT22;11729;50.836;4.330;2023-04-15T09:26:57;22.10;89.10
23120;DHT22;11729;50.836;4.330;2023-04-15T09:29:24;22.60;86.20
23120;DHT22;11729;50.836;4.330;2023-04-15T09:31:51;22.80;84.00
23120;DHT22;11729;50.836;4.330;2023-04-15T09:34:17;22.60;84.40
23120;DHT22;11729;50.836;4.330;2023-04-15T09:39:12;21.90;83.20
23120;DHT22;11729;50.836;4.330;2023-04-15T09:41:38;21.90;76.50
23120;DHT22;11729;50.836;4.330;2023-04-15T09:44:05;22.30;76.40
23120;DHT22;11729;50.836;4.330;2023-04-15T09:46:41;22.70;73.80
23120;DHT22;11729;50.836;4.330;2023-04-15T09:49:09;23.00;69.10
23120;DHT22;11729;50.836;4.330;2023-04-15T09:51:35;23.40;71.30
23120;DHT22;11729;50.836;4.330;2023-04-15T09:54:01;23.00;67.80
23120;DHT22;11729;50.836;4.330;2023-04-15T09:56:33;22.50;66.40
23120;DHT22;11729;50.836;4.330;2023-04-15T09:59:00;22.50;65.50
23120;DHT22;11729;50.836;4.330;2023-04-15T10:01:27;22.50;67.80
23120;DHT22;11729;50.836;4.330;2023-04-15T10:03:54;22.00;67.50
23120;DHT22;11729;50.836;4.330;2023-04-15T10:06:23;21.70;68.70
23120;DHT22;11729;50.836;4.330;2023-04-15T10:08:50;21.70;72.80
23120;DHT22;11729;50.836;4.330;2023-04-15T10:11:18;22.50;72.80
23120;DHT22;11729;50.836;4.330;2023-04-15T10:13:50;23.10;69.90
23120;DHT22;11729;50.836;4.330;2023-04-15T10:16:19;23.60;66.50
23120;DHT22;11729;50.836;4.330;2023-04-15T10:18:47;24.00;67.30
23120;DHT22;11729;50.836;4.330;2023-04-15T10:21:15;23.80;65.50
23120;DHT22;11729;50.836;4.330;2023-04-15T10:23:44;23.20;67.10
23120;DHT22;11729;50.836;4.330;2023-04-15T10:26:11;23.10;67.90
23120;DHT22;11729;50.836;4.330;2023-04-15T10:28:39;23.30;66.60
23120;DHT22;11729;50.836;4.330;2023-04-15T10:31:05;23.40;67.00
23120;DHT22;11729;50.836;4.330;2023-04-15T10:33:32;23.30;64.90
23120;DHT22;11729;50.836;4.330;2023-04-15T10:35:59;23.70;66.80
23120;DHT22;11729;50.836;4.330;2023-04-15T10:41:22;23.20;65.40
23120;DHT22;11729;50.836;4.330;2023-04-15T10:43:54;23.30;63.50
23120;DHT22;11729;50.836;4.330;2023-04-15T10:46:37;23.30;64.10
23120;DHT22;11729;50.836;4.330;2023-04-15T10:49:11;23.00;63.00
23120;DHT22;11729;50.836;4.330;2023-04-15T10:51:42;22.90;62.90
23120;DHT22;11729;50.836;4.330;2023-04-15T10:54:16;22.30;63.60
23120;DHT22;11729;50.836;4.330;2023-04-15T10:56:43;22.10;65.40
23120;DHT22;11729;50.836;4.330;2023-04-15T10:59:09;21.90;63.90
23120;DHT22;11729;50.836;4.330;2023-04-15T11:01:55;22.40;62.90
23120;DHT22;11729;50.836;4.330;2023-04-15T11:04:57;22.70;63.40
23120;DHT22;11729;50.836;4.330;2023-04-15T11:12:44;23.50;58.40
23120;DHT22;11729;50.836;4.330;2023-04-15T11:18:18;23.70;55.80
23120;DHT22;11729;50.836;4.330;2023-04-15T11:20:48;23.60;55.40
23120;DHT22;11729;50.836;4.330;2023-04-15T11:23:18;22.90;54.20
23120;DHT22;11729;50.836;4.330;2023-04-15T11:25:44;22.10;55.00
23120;DHT22;11729;50.836;4.330;2023-04-15T11:28:11;21.70;56.00
23120;DHT22;11729;50.836;4.330;2023-04-15T11:30:38;22.70;57.20
23120;DHT22;11729;50.836;4.330;2023-04-15T11:33:09;23.30;55.90
23120;DHT22;11729;50.836;4.330;2023-04-15T11:35:35;23.50;56.30
23120;DHT22;11729;50.836;4.330;2023-04-15T11:38:07;23.00;56.20
23120;DHT22;11729;50.836;4.330;2023-04-15T11:40:33;22.80;56.20
23120;DHT22;11729;50.836;4.330;2023-04-15T11:43:07;22.70;55.40
23120;DHT22;11729;50.836;4.330;2023-04-15T11:45:47;22.60;56.90
23120;DHT22;11729;50.836;4.330;2023-04-15T11:48:13;22.40;55.40
23120;DHT22;11729;50.836;4.330;2023-04-15T11:50:39;21.90;53.90
23120;DHT22;11729;50.836;4.330;2023-04-15T11:53:07;21.80;50.60
23120;DHT22;11729;50.836;4.330;2023-04-15T11:55:47;21.90;48.50
23120;DHT22;11729;50.836;4.330;2023-04-15T11:58:14;21.80;49.90
23120;DHT22;11729;50.836;4.330;2023-04-15T12:00:51;21.90;50.60
23120;DHT22;11729;50.836;4.330;2023-04-15T12:14:25;22.70;48.50
23120;DHT22;11729;50.836;4.330;2023-04-15T12:16:54;22.30;47.40
23120;DHT22;11729;50.836;4.330;2023-04-15T12:19:42;22.40;47.10
23120;DHT22;11729;50.836;4.330;2023-04-15T12:22:14;22.50;47.10
23120;DHT22;11729;50.836;4.330;2023-04-15T12:24:41;23.00;48.20
23120;DHT22;11729;50.836;4.330;2023-04-15T12:27:13;23.20;45.20
23120;DHT22;11729;50.836;4.330;2023-04-15T12:29:40;23.40;47.60
23120;DHT22;11729;50.836;4.330;2023-04-15T12:32:08;23.30;48.20
23120;DHT22;11729;50.836;4.330;2023-04-15T12:34:36;23.70;50.90
23120;DHT22;11729;50.836;4.330;2023-04-15T12:37:03;24.10;47.90
23120;DHT22;11729;50.836;4.330;2023-04-15T12:39:31;24.10;46.90
23120;DHT22;11729;50.836;4.330;2023-04-15T12:41:59;23.80;46.90
23120;DHT22;11729;50.836;4.330;2023-04-15T12:44:25;22.90;46.70
23120;DHT22;11729;50.836;4.330;2023-04-15T12:46:51;23.00;47.20
23120;DHT22;11729;50.836;4.330;2023-04-15T12:49:20;23.00;45.10
23120;DHT22;11729;50.836;4.330;2023-04-15T12:51:48;23.30;47.20
23120;DHT22;11729;50.836;4.330;2023-04-15T12:54:14;23.40;45.40
23120;DHT22;11729;50.836;4.330;2023-04-15T12:56:41;23.30;45.30
23120;DHT22;11729;50.836;4.330;2023-04-15T12:59:06;23.50;46.30
23120;DHT22;11729;50.836;4.330;2023-04-15T13:01:32;23.00;47.40
23120;DHT22;11729;50.836;4.330;2023-04-15T13:03:58;22.70;45.90
23120;DHT22;11729;50.836;4.330;2023-04-15T13:06:23;22.50;43.60
23120;DHT22;11729;50.836;4.330;2023-04-15T13:08:49;23.00;46.10
23120;DHT22;11729;50.836;4.330;2023-04-15T13:11:15;23.10;45.50
23120;DHT22;11729;50.836;4.330;2023-04-15T13:13:42;22.90;44.30
23120;DHT22;11729;50.836;4.330;2023-04-15T13:16:07;23.10;45.00
23120;DHT22;11729;50.836;4.330;2023-04-15T13:18:36;23.10;45.20
23120;DHT22;11729;50.836;4.330;2023-04-15T13:21:01;23.50;44.90
23120;DHT22;11729;50.836;4.330;2023-04-15T13:23:32;23.40;46.60
23120;DHT22;11729;50.836;4.330;2023-04-15T13:25:57;23.50;45.50
23120;DHT22;11729;50.836;4.330;2023-04-15T13:28:23;24.10;46.60
23120;DHT22;11729;50.836;4.330;2023-04-15T13:30:48;23.60;47.80
23120;DHT22;11729;50.836;4.330;2023-04-15T13:33:16;23.50;49.10
23120;DHT22;11729;50.836;4.330;2023-04-15T13:35:42;23.20;50.00
23120;DHT22;11729;50.836;4.330;2023-04-15T13:38:07;23.70;49.60
23120;DHT22;11729;50.836;4.330;2023-04-15T13:40:33;23.40;49.20
23120;DHT22;11729;50.836;4.330;2023-04-15T13:42:58;22.50;51.10
23120;DHT22;11729;50.836;4.330;2023-04-15T13:45:25;21.90;50.90
23120;DHT22;11729;50.836;4.330;2023-04-15T13:47:50;21.00;51.00
23120;DHT22;11729;50.836;4.330;2023-04-15T13:50:16;21.00;51.50
23120;DHT22;11729;50.836;4.330;2023-04-15T13:52:42;20.70;52.80
23120;DHT22;11729;50.836;4.330;2023-04-15T13:55:08;20.40;52.00
23120;DHT22;11729;50.836;4.330;2023-04-15T13:57:33;20.00;52.80
23120;DHT22;11729;50.836;4.330;2023-04-15T13:59:59;19.90;54.00
23120;DHT22;11729;50.836;4.330;2023-04-15T14:02:24;20.00;53.70
23120;DHT22;11729;50.836;4.330;2023-04-15T14:04:50;19.80;54.40
23120;DHT22;11729;50.836;4.330;2023-04-15T14:07:16;19.60;56.10
23120;DHT22;11729;50.836;4.330;2023-04-15T14:09:42;19.40;56.50
23120;DHT22;11729;50.836;4.330;2023-04-15T14:12:08;19.30;57.70
23120;DHT22;11729;50.836;4.330;2023-04-15T14:14:35;19.20;58.30
23120;DHT22;11729;50.836;4.330;2023-04-15T14:17:02;19.00;58.60
23120;DHT22;11729;50.836;4.330;2023-04-15T14:19:30;19.00;59.40
23120;DHT22;11729;50.836;4.330;2023-04-15T14:21:55;19.00;59.30
23120;DHT22;11729;50.836;4.330;2023-04-15T14:24:21;19.20;61.10
23120;DHT22;11729;50.836;4.330;2023-04-15T14:26:48;19.20;59.30
23120;DHT22;11729;50.836;4.330;2023-04-15T14:29:13;18.90;60.30
23120;DHT22;11729;50.836;4.330;2023-04-15T14:31:39;19.00;61.10
23120;DHT22;11729;50.836;4.330;2023-04-15T14:34:04;19.00;61.00
23120;DHT22;11729;50.836;4.330;2023-04-15T14:36:31;18.90;61.80
23120;DHT22;11729;50.836;4.330;2023-04-15T14:38:57;18.80;59.30
23120;DHT22;11729;50.836;4.330;2023-04-15T14:41:23;18.40;59.70
23120;DHT22;11729;50.836;4.330;2023-04-15T14:43:49;18.20;58.80
23120;DHT22;11729;50.836;4.330;2023-04-15T14:46:14;18.20;60.60
23120;DHT22;11729;50.836;4.330;2023-04-15T14:48:40;18.10;61.30
23120;DHT22;11729;50.836;4.330;2023-04-15T14:51:06;18.20;61.10
23120;DHT22;11729;50.836;4.330;2023-04-15T14:53:32;18.20;61.20
23120;DHT22;11729;50.836;4.330;2023-04-15T14:55:57;18.20;60.90
23120;DHT22;11729;50.836;4.330;2023-04-15T14:58:23;18.30;60.70
23120;DHT22;11729;50.836;4.330;2023-04-15T15:00:49;18.20;63.60
23120;DHT22;11729;50.836;4.330;2023-04-15T15:03:14;18.10;64.30
23120;DHT22;11729;50.836;4.330;2023-04-15T15:05:41;18.10;66.70
23120;DHT22;11729;50.836;4.330;2023-04-15T15:08:07;18.30;67.60
23120;DHT22;11729;50.836;4.330;2023-04-15T15:10:34;18.30;67.10
23120;DHT22;11729;50.836;4.330;2023-04-15T15:13:05;18.60;68.30
23120;DHT22;11729;50.836;4.330;2023-04-15T15:15:34;18.60;67.90
23120;DHT22;11729;50.836;4.330;2023-04-15T15:18:00;18.60;68.30
23120;DHT22;11729;50.836;4.330;2023-04-15T15:20:26;18.50;68.20
23120;DHT22;11729;50.836;4.330;2023-04-15T15:22:52;18.20;69.30
23120;DHT22;11729;50.836;4.330;2023-04-15T15:25:18;18.20;69.50
23120;DHT22;11729;50.836;4.330;2023-04-15T15:27:43;18.30;74.30
23120;DHT22;11729;50.836;4.330;2023-04-15T15:30:10;18.00;79.70
23120;DHT22;11729;50.836;4.330;2023-04-15T15:32:38;17.80;84.00
23120;DHT22;11729;50.836;4.330;2023-04-15T15:35:04;17.90;87.10
23120;DHT22;11729;50.836;4.330;2023-04-15T15:37:29;18.20;86.80
23120;DHT22;11729;50.836;4.330;2023-04-15T15:39:55;18.20;87.00
23120;DHT22;11729;50.836;4.330;2023-04-15T15:42:21;18.20;88.10
23120;DHT22;11729;50.836;4.330;2023-04-15T15:44:49;18.30;89.90
23120;DHT22;11729;50.836;4.330;2023-04-15T15:47:17;17.90;92.20
23120;DHT22;11729;50.836;4.330;2023-04-15T15:49:44;17.80;94.10
23120;DHT22;11729;50.836;4.330;2023-04-15T15:52:10;17.80;94.40